createdAt,value
2015-12-18T00:00:09.323Z,73.55
2015-12-18T00:00:21.714Z,73.74
2015-12-18T00:00:34.089Z,73.74
2015-12-18T00:00:46.495Z,73.74
2015-12-18T00:00:58.888Z,73.36
2015-12-18T00:01:11.278Z,73.74
2015-12-18T00:01:23.638Z,74.11
2015-12-18T00:01:35.997Z,73.83
2015-12-18T00:01:48.341Z,73.93
2015-12-18T00:02:00.702Z,73.93
2015-12-18T00:02:13.046Z,73.74
2015-12-18T00:02:25.405Z,73.74
2015-12-18T00:02:37.812Z,73.74
2015-12-18T00:02:50.171Z,73.93
2015-12-18T00:03:02.534Z,73.93
2015-12-18T00:03:14.894Z,73.93
2015-12-18T00:03:27.253Z,73.55
2015-12-18T00:03:39.612Z,74.11
2015-12-18T00:03:51.987Z,74.21
2015-12-18T00:04:04.364Z,73.74
2015-12-18T00:04:16.724Z,73.74
2015-12-18T00:04:29.099Z,73.74
2015-12-18T00:04:41.474Z,73.74
2015-12-18T00:04:53.864Z,73.83
2015-12-18T00:05:06.242Z,73.93
2015-12-18T00:05:18.633Z,73.83
2015-12-18T00:05:30.321Z,73.83
2015-12-18T00:05:42.711Z,73.93
2015-12-18T00:05:55.117Z,74.21
2015-12-18T00:06:07.495Z,74.21
2015-12-18T00:06:19.855Z,74.11
2015-12-18T00:06:32.214Z,73.93
2015-12-18T00:06:44.574Z,73.64
2015-12-18T00:06:56.933Z,73.83
2015-12-18T00:07:09.295Z,73.93
2015-12-18T00:07:21.655Z,74.21
2015-12-18T00:07:34.014Z,74.11
2015-12-18T00:07:46.389Z,73.64
2015-12-18T00:07:58.748Z,73.55
2015-12-18T00:08:11.110Z,73.83
2015-12-18T00:08:23.469Z,73.55
2015-12-18T00:08:35.844Z,73.83
2015-12-18T00:08:48.204Z,74.11
2015-12-18T00:09:00.579Z,74.3
2015-12-18T00:09:12.957Z,74.3
2015-12-18T00:09:25.316Z,74.68
2015-12-18T00:09:37.707Z,74.58
2015-12-18T00:09:50.082Z,74.58
2015-12-18T00:10:02.472Z,74.58
2015-12-18T00:10:14.866Z,74.68
2015-12-18T00:10:27.272Z,74.58
2015-12-18T00:10:39.647Z,74.87
2015-12-18T00:10:52.038Z,75.24
2015-12-18T00:11:04.444Z,75.15
2015-12-18T00:11:16.806Z,75.05
2015-12-18T00:11:29.166Z,75.24
2015-12-18T00:11:41.525Z,75.05
2015-12-18T00:11:53.869Z,75.15
2015-12-18T00:12:06.228Z,75.24
2015-12-18T00:12:18.590Z,75.24
2015-12-18T00:12:30.949Z,75.24
2015-12-18T00:12:43.293Z,75.34
2015-12-18T00:12:55.668Z,75.34
2015-12-18T00:13:08.011Z,75.34
2015-12-18T00:13:20.374Z,75.34
2015-12-18T00:13:32.733Z,75.34
2015-12-18T00:13:45.093Z,75.53
2015-12-18T00:13:57.452Z,75.24
2015-12-18T00:14:09.827Z,75.15
2015-12-18T00:14:22.205Z,75.24
2015-12-18T00:14:34.596Z,75.24
2015-12-18T00:14:46.986Z,75.34
2015-12-18T00:14:59.361Z,75.62
2015-12-18T00:15:11.752Z,75.05
2015-12-18T00:15:24.145Z,75.15
2015-12-18T00:15:36.552Z,74.77
2015-12-18T00:15:48.927Z,75.62
2015-12-18T00:16:01.333Z,74.77
2015-12-18T00:16:13.692Z,75.05
2015-12-18T00:16:26.054Z,75.05
2015-12-18T00:16:38.397Z,74.77
2015-12-18T00:16:50.757Z,74.96
2015-12-18T00:17:03.132Z,74.96
2015-12-18T00:17:15.491Z,74.77
2015-12-18T00:17:27.854Z,74.3
2015-12-18T00:17:40.197Z,74.68
2015-12-18T00:17:52.557Z,74.77
2015-12-18T00:18:04.916Z,74.3
2015-12-18T00:18:17.260Z,74.68
2015-12-18T00:18:29.607Z,74.58
2015-12-18T00:18:41.982Z,74.68
2015-12-18T00:18:54.357Z,74.68
2015-12-18T00:19:06.716Z,74.4
2015-12-18T00:19:19.091Z,74.58
2015-12-18T00:19:31.469Z,74.11
2015-12-18T00:19:43.844Z,74.3
2015-12-18T00:19:55.516Z,74.58
2015-12-18T00:20:07.906Z,74.77
2015-12-18T00:20:19.594Z,74.77
2015-12-18T00:20:31.987Z,74.49
2015-12-18T00:20:44.377Z,74.49
2015-12-18T00:20:56.737Z,74.49
2015-12-18T00:21:09.096Z,74.58
2015-12-18T00:21:21.440Z,74.3
2015-12-18T00:21:33.802Z,74.58
2015-12-18T00:21:46.161Z,74.68
2015-12-18T00:21:58.521Z,74.58
2015-12-18T00:22:10.880Z,74.3
2015-12-18T00:22:23.240Z,74.4
2015-12-18T00:22:35.602Z,74.3
2015-12-18T00:22:47.946Z,74.4
2015-12-18T00:23:00.305Z,74.58
2015-12-18T00:23:12.664Z,74.4
2015-12-18T00:23:25.024Z,74.4
2015-12-18T00:23:37.386Z,74.11
2015-12-18T00:23:49.746Z,74.3
2015-12-18T00:24:02.105Z,74.4
2015-12-18T00:24:14.480Z,74.58
2015-12-18T00:24:26.839Z,74.58
2015-12-18T00:24:39.232Z,74.68
2015-12-18T00:24:51.623Z,74.3
2015-12-18T00:25:03.998Z,74.58
2015-12-18T00:25:16.404Z,74.3
2015-12-18T00:25:28.794Z,74.77
2015-12-18T00:25:41.158Z,74.77
2015-12-18T00:25:53.517Z,74.49
2015-12-18T00:26:05.720Z,74.49
2015-12-18T00:26:18.080Z,74.4
2015-12-18T00:26:30.439Z,74.58
2015-12-18T00:26:42.785Z,74.3
2015-12-18T00:26:55.144Z,74.77
2015-12-18T00:27:07.332Z,74.68
2015-12-18T00:27:19.691Z,74.68
2015-12-18T00:27:32.085Z,74.49
2015-12-18T00:27:43.725Z,74.3
2015-12-18T00:27:56.069Z,74.49
2015-12-18T00:28:08.444Z,74.77
2015-12-18T00:28:20.788Z,74.58
2015-12-18T00:28:33.181Z,74.58
2015-12-18T00:28:45.541Z,74.58
2015-12-18T00:28:57.916Z,74.68
2015-12-18T00:29:10.291Z,74.68
2015-12-18T00:29:22.681Z,74.49
2015-12-18T00:29:35.074Z,74.68
2015-12-18T00:29:47.465Z,74.87
2015-12-18T00:29:59.887Z,75.15
2015-12-18T00:30:12.277Z,75.62
2015-12-18T00:30:24.652Z,75.15
2015-12-18T00:30:37.046Z,75.24
2015-12-18T00:30:49.405Z,75.34
2015-12-18T00:31:01.749Z,75.53
2015-12-18T00:31:14.108Z,75.53
2015-12-18T00:31:26.468Z,75.81
2015-12-18T00:31:38.846Z,75.81
2015-12-18T00:31:51.205Z,75.43
2015-12-18T00:32:03.549Z,75.62
2015-12-18T00:32:15.908Z,75.62
2015-12-18T00:32:28.268Z,75.71
2015-12-18T00:32:40.630Z,75.71
2015-12-18T00:32:52.989Z,75.62
2015-12-18T00:33:04.646Z,75.71
2015-12-18T00:33:17.005Z,76
2015-12-18T00:33:29.380Z,76.09
2015-12-18T00:33:41.757Z,76
2015-12-18T00:33:54.116Z,76.09
2015-12-18T00:34:06.507Z,76.09
2015-12-18T00:34:18.882Z,76.19
2015-12-18T00:34:31.273Z,76.09
2015-12-18T00:34:43.682Z,75.81
2015-12-18T00:34:56.088Z,76.38
2015-12-18T00:35:08.463Z,76.47
2015-12-18T00:35:20.854Z,76.47
2015-12-18T00:35:33.260Z,76.38
2015-12-18T00:35:45.622Z,76.47
2015-12-18T00:35:57.966Z,76.66
2015-12-18T00:36:10.325Z,76.38
2015-12-18T00:36:22.685Z,76.47
2015-12-18T00:36:35.060Z,76.57
2015-12-18T00:36:47.406Z,76.76
2015-12-18T00:36:59.765Z,76.47
2015-12-18T00:37:12.124Z,76.57
2015-12-18T00:37:24.499Z,76.85
2015-12-18T00:37:36.877Z,76.76
2015-12-18T00:37:49.221Z,77.04
2015-12-18T00:38:01.580Z,76.76
2015-12-18T00:38:13.955Z,76.76
2015-12-18T00:38:26.330Z,76.76
2015-12-18T00:38:38.707Z,76.76
2015-12-18T00:38:51.067Z,76.76
2015-12-18T00:39:03.457Z,76.76
2015-12-18T00:39:15.848Z,76.85
2015-12-18T00:39:28.239Z,76.66
2015-12-18T00:39:40.648Z,76.57
2015-12-18T00:39:53.054Z,76.57
2015-12-18T00:40:04.726Z,76.85
2015-12-18T00:40:17.132Z,76.28
2015-12-18T00:40:29.492Z,76.85
2015-12-18T00:40:41.854Z,76.57
2015-12-18T00:40:54.213Z,76.66
2015-12-18T00:41:06.573Z,76.66
2015-12-18T00:41:18.932Z,76.57
2015-12-18T00:41:31.307Z,76.66
2015-12-18T00:41:43.653Z,76.47
2015-12-18T00:41:56.028Z,76.66
2015-12-18T00:42:08.387Z,76.66
2015-12-18T00:42:20.747Z,76.57
2015-12-18T00:42:33.106Z,76.66
2015-12-18T00:42:45.484Z,76.66
2015-12-18T00:42:57.156Z,76.95
2015-12-18T00:43:09.531Z,76.95
2015-12-18T00:43:21.906Z,76.66
2015-12-18T00:43:34.281Z,76.76
2015-12-18T00:43:46.675Z,77.13
2015-12-18T00:43:59.050Z,76.76
2015-12-18T00:44:11.456Z,76.85
2015-12-18T00:44:23.690Z,77.13
2015-12-18T00:44:36.081Z,77.04
2015-12-18T00:44:48.474Z,76.85
2015-12-18T00:45:00.881Z,77.32
2015-12-18T00:45:13.224Z,76.85
2015-12-18T00:45:25.584Z,77.04
2015-12-18T00:45:37.943Z,77.04
2015-12-18T00:45:50.289Z,76.76
2015-12-18T00:46:02.664Z,76.66
2015-12-18T00:46:15.023Z,76.66
2015-12-18T00:46:27.367Z,76.47
2015-12-18T00:46:39.742Z,76.28
2015-12-18T00:46:52.104Z,76.47
2015-12-18T00:47:04.464Z,76.47
2015-12-18T00:47:16.823Z,76.47
2015-12-18T00:47:29.167Z,76.28
2015-12-18T00:47:41.808Z,76.28
2015-12-18T00:47:54.201Z,76.09
2015-12-18T00:48:06.561Z,76.09
2015-12-18T00:48:18.936Z,76.09
2015-12-18T00:48:31.295Z,75.81
2015-12-18T00:48:43.686Z,75.81
2015-12-18T00:48:56.095Z,75.9
2015-12-18T00:49:08.485Z,75.9
2015-12-18T00:49:20.860Z,75.53
2015-12-18T00:49:33.251Z,75.62
2015-12-18T00:49:45.610Z,75.62
2015-12-18T00:49:57.285Z,75.53
2015-12-18T00:50:09.645Z,75.24
2015-12-18T00:50:21.988Z,75.53
2015-12-18T00:50:34.348Z,75.53
2015-12-18T00:50:46.707Z,74.96
2015-12-18T00:50:59.069Z,74.87
2015-12-18T00:51:11.428Z,74.49
2015-12-18T00:51:23.787Z,74.11
2015-12-18T00:51:36.131Z,73.83
2015-12-18T00:51:48.506Z,73.74
2015-12-18T00:52:00.869Z,73.74
2015-12-18T00:52:13.229Z,73.74
2015-12-18T00:52:25.588Z,73.64
2015-12-18T00:52:37.963Z,73.93
2015-12-18T00:52:50.182Z,73.55
2015-12-18T00:53:02.559Z,73.64
2015-12-18T00:53:14.934Z,73.74
2015-12-18T00:53:27.309Z,73.74
2015-12-18T00:53:39.700Z,73.55
2015-12-18T00:53:52.075Z,73.93
2015-12-18T00:54:04.468Z,73.55
2015-12-18T00:54:16.859Z,74.3
2015-12-18T00:54:29.265Z,74.11
2015-12-18T00:54:41.640Z,74.4
2015-12-18T00:54:54.031Z,74.4
2015-12-18T00:55:06.440Z,74.21
2015-12-18T00:55:18.799Z,74.87
2015-12-18T00:55:31.159Z,74.68
2015-12-18T00:55:43.784Z,74.68
2015-12-18T00:55:56.143Z,74.77
2015-12-18T00:56:08.521Z,75.05
2015-12-18T00:56:20.709Z,75.62
2015-12-18T00:56:33.068Z,75.62
2015-12-18T00:56:45.443Z,75.05
2015-12-18T00:56:57.834Z,75.62
2015-12-18T00:57:10.195Z,74.87
2015-12-18T00:57:22.554Z,75.24
2015-12-18T00:57:34.914Z,75.15
2015-12-18T00:57:47.289Z,75.15
2015-12-18T00:57:59.742Z,75.15
2015-12-18T00:58:12.120Z,75.05
2015-12-18T00:58:24.495Z,75.24
2015-12-18T00:58:36.870Z,75.05
2015-12-18T00:58:49.260Z,75.62
2015-12-18T00:59:01.651Z,75.62
2015-12-18T00:59:14.045Z,75.53
2015-12-18T00:59:26.420Z,75.34
2015-12-18T00:59:38.826Z,75.34
2015-12-18T00:59:51.185Z,75.43
2015-12-18T01:00:03.545Z,75.34
2015-12-18T01:00:15.906Z,75.71
2015-12-18T01:00:28.297Z,75.15
2015-12-18T01:00:40.703Z,74.87
2015-12-18T01:00:53.062Z,74.96
2015-12-18T01:01:05.422Z,74.87
2015-12-18T01:01:17.785Z,74.77
2015-12-18T01:01:30.129Z,74.87
2015-12-18T01:01:42.488Z,74.58
2015-12-18T01:01:54.848Z,74.68
2015-12-18T01:02:07.207Z,74.68
2015-12-18T01:02:19.568Z,74.77
2015-12-18T01:02:31.240Z,74.21
2015-12-18T01:02:43.584Z,74.4
2015-12-18T01:02:55.943Z,74.49
2015-12-18T01:03:08.303Z,74.68
2015-12-18T01:03:20.665Z,74.3
2015-12-18T01:03:33.040Z,74.02
2015-12-18T01:03:45.415Z,74.21
2015-12-18T01:03:57.790Z,74.02
2015-12-18T01:04:10.165Z,74.21
2015-12-18T01:04:22.559Z,74.4
2015-12-18T01:04:34.949Z,74.11
2015-12-18T01:04:47.356Z,74.11
2015-12-18T01:04:59.715Z,74.21
2015-12-18T01:05:12.074Z,74.11
2015-12-18T01:05:24.436Z,74.21
2015-12-18T01:05:36.811Z,74.21
2015-12-18T01:05:49.154Z,74.21
2015-12-18T01:06:01.514Z,74.11
2015-12-18T01:06:13.873Z,74.21
2015-12-18T01:06:26.236Z,74.21
2015-12-18T01:06:38.611Z,74.4
2015-12-18T01:06:50.954Z,74.02
2015-12-18T01:07:03.329Z,74.21
2015-12-18T01:07:15.689Z,74.3
2015-12-18T01:07:28.051Z,74.11
2015-12-18T01:07:40.426Z,73.93
2015-12-18T01:07:52.785Z,73.83
2015-12-18T01:08:05.160Z,73.93
2015-12-18T01:08:17.520Z,73.83
2015-12-18T01:08:29.757Z,73.83
2015-12-18T01:08:42.148Z,73.83
2015-12-18T01:08:54.538Z,74.11
2015-12-18T01:09:06.929Z,73.64
2015-12-18T01:09:19.320Z,73.83
2015-12-18T01:09:31.712Z,74.49
2015-12-18T01:09:43.353Z,73.83
2015-12-18T01:09:55.712Z,73.93
2015-12-18T01:10:08.072Z,73.83
2015-12-18T01:10:19.712Z,74.11
2015-12-18T01:10:32.090Z,74.02
2015-12-18T01:10:44.450Z,74.11
2015-12-18T01:10:56.825Z,74.02
2015-12-18T01:11:09.184Z,74.02
2015-12-18T01:11:21.543Z,73.64
2015-12-18T01:11:33.906Z,73.64
2015-12-18T01:11:46.265Z,73.93
2015-12-18T01:11:58.625Z,73.93
2015-12-18T01:12:11.000Z,73.93
2015-12-18T01:12:23.375Z,73.74
2015-12-18T01:12:35.737Z,73.74
2015-12-18T01:12:48.128Z,74.11
2015-12-18T01:13:00.503Z,74.02
2015-12-18T01:13:12.893Z,73.74
2015-12-18T01:13:25.268Z,73.74
2015-12-18T01:13:37.676Z,73.64
2015-12-18T01:13:50.067Z,73.93
2015-12-18T01:14:02.442Z,73.93
2015-12-18T01:14:14.786Z,73.74
2015-12-18T01:14:26.426Z,73.74
2015-12-18T01:14:38.789Z,73.93
2015-12-18T01:14:51.164Z,73.83
2015-12-18T01:15:03.523Z,73.74
2015-12-18T01:15:15.867Z,73.93
2015-12-18T01:15:28.226Z,73.93
2015-12-18T01:15:40.604Z,73.93
2015-12-18T01:15:52.979Z,73.93
2015-12-18T01:16:05.354Z,73.93
2015-12-18T01:16:17.698Z,73.83
2015-12-18T01:16:30.076Z,74.02
2015-12-18T01:16:42.435Z,73.45
2015-12-18T01:16:54.810Z,73.83
2015-12-18T01:17:07.201Z,73.64
2015-12-18T01:17:19.576Z,73.55
2015-12-18T01:17:31.969Z,73.74
2015-12-18T01:17:44.359Z,73.55
2015-12-18T01:17:56.750Z,73.74
2015-12-18T01:18:09.141Z,73.74
2015-12-18T01:18:21.516Z,73.93
2015-12-18T01:18:33.924Z,73.83
2015-12-18T01:18:46.314Z,73.93
2015-12-18T01:18:58.736Z,73.93
2015-12-18T01:19:11.096Z,73.55
2015-12-18T01:19:23.439Z,73.64
2015-12-18T01:19:35.802Z,73.64
2015-12-18T01:19:48.161Z,73.64
2015-12-18T01:20:00.536Z,73.74
2015-12-18T01:20:12.880Z,73.74
2015-12-18T01:20:25.239Z,73.74
2015-12-18T01:20:37.603Z,73.93
2015-12-18T01:20:49.978Z,73.74
2015-12-18T01:21:02.337Z,73.74
2015-12-18T01:21:14.681Z,73.74
2015-12-18T01:21:27.040Z,73.64
2015-12-18T01:21:39.402Z,73.83
2015-12-18T01:21:51.777Z,73.93
2015-12-18T01:22:13.198Z,73.83
2015-12-18T01:22:25.589Z,73.74
2015-12-18T01:22:37.967Z,73.64
2015-12-18T01:22:50.342Z,73.55
2015-12-18T01:23:02.717Z,73.83
2015-12-18T01:23:15.108Z,73.83
2015-12-18T01:23:27.483Z,73.93
2015-12-18T01:23:39.875Z,73.83
2015-12-18T01:23:52.297Z,73.45
2015-12-18T01:24:04.500Z,73.74
2015-12-18T01:24:16.860Z,73.83
2015-12-18T01:24:29.219Z,74.21
2015-12-18T01:24:41.567Z,74.02
2015-12-18T01:24:53.942Z,73.93
2015-12-18T01:25:06.286Z,73.55
2015-12-18T01:25:18.661Z,73.74
2015-12-18T01:25:31.004Z,73.83
2015-12-18T01:25:43.381Z,73.83
2015-12-18T01:25:55.756Z,73.83
2015-12-18T01:26:08.116Z,73.93
2015-12-18T01:26:20.459Z,73.64
2015-12-18T01:26:32.834Z,73.93
2015-12-18T01:26:45.197Z,73.93
2015-12-18T01:26:57.572Z,73.55
2015-12-18T01:27:09.275Z,73.55
2015-12-18T01:27:21.650Z,73.55
2015-12-18T01:27:34.030Z,73.74
2015-12-18T01:27:46.423Z,73.55
2015-12-18T01:27:58.814Z,73.36
2015-12-18T01:28:11.205Z,73.45
2015-12-18T01:28:23.595Z,73.93
2015-12-18T01:28:35.845Z,73.55
2015-12-18T01:28:48.208Z,73.74
2015-12-18T01:29:00.551Z,73.83
2015-12-18T01:29:12.911Z,73.64
2015-12-18T01:29:25.270Z,73.64
2015-12-18T01:29:37.630Z,73.74
2015-12-18T01:29:50.007Z,73.74
2015-12-18T01:30:02.366Z,74.02
2015-12-18T01:30:14.725Z,73.74
2015-12-18T01:30:27.069Z,74.02
2015-12-18T01:30:39.428Z,73.74
2015-12-18T01:30:51.791Z,73.83
2015-12-18T01:31:04.150Z,73.74
2015-12-18T01:31:16.510Z,73.64
2015-12-18T01:31:28.885Z,73.55
2015-12-18T01:31:41.260Z,73.93
2015-12-18T01:31:53.638Z,73.93
2015-12-18T01:32:06.013Z,73.45
2015-12-18T01:32:18.388Z,73.55
2015-12-18T01:32:30.778Z,73.55
2015-12-18T01:32:43.169Z,73.83
2015-12-18T01:32:55.561Z,73.83
2015-12-18T01:33:07.952Z,74.3
2015-12-18T01:33:20.140Z,73.93
2015-12-18T01:33:32.499Z,73.93
2015-12-18T01:33:44.843Z,73.93
2015-12-18T01:33:57.222Z,73.55
2015-12-18T01:34:09.581Z,74.3
2015-12-18T01:34:21.940Z,74.11
2015-12-18T01:34:34.300Z,73.64
2015-12-18T01:34:46.659Z,74.3
2015-12-18T01:34:59.036Z,73.83
2015-12-18T01:35:11.411Z,73.74
2015-12-18T01:35:23.771Z,73.74
2015-12-18T01:35:36.146Z,73.55
2015-12-18T01:35:48.521Z,73.55
2015-12-18T01:36:00.914Z,73.83
2015-12-18T01:36:13.305Z,73.74
2015-12-18T01:36:25.695Z,73.93
2015-12-18T01:36:38.102Z,73.83
2015-12-18T01:36:50.492Z,74.02
2015-12-18T01:37:02.885Z,73.45
2015-12-18T01:37:15.260Z,73.55
2015-12-18T01:37:27.619Z,73.64
2015-12-18T01:37:39.963Z,73.74
2015-12-18T01:37:52.322Z,73.36
2015-12-18T01:38:04.686Z,73.26
2015-12-18T01:38:17.030Z,73.26
2015-12-18T01:38:29.389Z,73.17
2015-12-18T01:38:41.748Z,73.17
2015-12-18T01:38:54.108Z,73.17
2015-12-18T01:39:06.470Z,73.17
2015-12-18T01:39:18.829Z,73.17
2015-12-18T01:39:31.189Z,73.07
2015-12-18T01:39:43.548Z,73.17
2015-12-18T01:39:55.939Z,73.17
2015-12-18T01:40:08.300Z,73.17
2015-12-18T01:40:20.675Z,72.88
2015-12-18T01:40:33.050Z,73.17
2015-12-18T01:40:45.441Z,73.17
2015-12-18T01:40:57.816Z,72.88
2015-12-18T01:41:10.225Z,72.69
2015-12-18T01:41:22.600Z,73.07
2015-12-18T01:41:35.006Z,73.07
2015-12-18T01:41:47.366Z,72.98
2015-12-18T01:41:59.725Z,72.88
2015-12-18T01:42:12.086Z,73.17
2015-12-18T01:42:24.446Z,73.07
2015-12-18T01:42:36.790Z,72.79
2015-12-18T01:42:49.165Z,72.69
2015-12-18T01:43:01.524Z,72.88
2015-12-18T01:43:13.886Z,72.88
2015-12-18T01:43:26.246Z,72.32
2015-12-18T01:43:37.886Z,72.22
2015-12-18T01:43:50.261Z,72.41
2015-12-18T01:44:02.621Z,72.88
2015-12-18T01:44:14.999Z,72.32
2015-12-18T01:44:27.358Z,72.6
2015-12-18T01:44:39.733Z,72.6
2015-12-18T01:44:52.108Z,72.41
2015-12-18T01:45:04.483Z,72.51
2015-12-18T01:45:16.877Z,72.51
2015-12-18T01:45:29.361Z,72.41
2015-12-18T01:45:41.049Z,72.6
2015-12-18T01:45:53.439Z,72.41
2015-12-18T01:46:05.799Z,72.32
2015-12-18T01:46:18.161Z,72.51
2015-12-18T01:46:30.520Z,72.79
2015-12-18T01:46:42.880Z,72.6
2015-12-18T01:46:55.239Z,72.79
2015-12-18T01:47:07.598Z,72.22
2015-12-18T01:47:19.961Z,72.69
2015-12-18T01:47:32.305Z,72.22
2015-12-18T01:47:44.680Z,72.6
2015-12-18T01:47:57.023Z,72.79
2015-12-18T01:48:09.383Z,72.69
2015-12-18T01:48:21.760Z,72.69
2015-12-18T01:48:34.135Z,72.69
2015-12-18T01:48:46.494Z,72.69
2015-12-18T01:48:58.853Z,72.79
2015-12-18T01:49:11.228Z,72.41
2015-12-18T01:49:22.888Z,72.6
2015-12-18T01:49:35.278Z,72.79
2015-12-18T01:49:47.669Z,72.03
2015-12-18T01:50:00.060Z,72.22
2015-12-18T01:50:12.466Z,72.32
2015-12-18T01:50:24.844Z,72.32
2015-12-18T01:50:37.219Z,72.22
2015-12-18T01:50:49.625Z,72.13
2015-12-18T01:51:01.984Z,72.03
2015-12-18T01:51:14.328Z,71.84
2015-12-18T01:51:26.690Z,71.84
2015-12-18T01:51:39.049Z,71.84
2015-12-18T01:51:51.424Z,71.75
2015-12-18T01:52:03.783Z,71.94
2015-12-18T01:52:16.143Z,71.84
2015-12-18T01:52:28.489Z,71.75
2015-12-18T01:52:40.833Z,71.75
2015-12-18T01:52:53.208Z,71.56
2015-12-18T01:53:05.552Z,71.66
2015-12-18T01:53:17.911Z,71.37
2015-12-18T01:53:30.274Z,71.09
2015-12-18T01:53:42.649Z,71.28
2015-12-18T01:53:55.024Z,71.19
2015-12-18T01:54:07.399Z,71
2015-12-18T01:54:19.758Z,71.09
2015-12-18T01:54:32.152Z,71
2015-12-18T01:54:44.542Z,71.19
2015-12-18T01:54:56.917Z,70.72
2015-12-18T01:55:09.308Z,70.72
2015-12-18T01:55:21.714Z,70.72
2015-12-18T01:55:34.092Z,70.81
2015-12-18T01:55:46.452Z,70.62
2015-12-18T01:55:58.811Z,70.62
2015-12-18T01:56:11.170Z,70.72
2015-12-18T01:56:23.530Z,70.81
2015-12-18T01:56:35.875Z,70.81
2015-12-18T01:56:48.235Z,70.62
2015-12-18T01:57:00.594Z,70.62
2015-12-18T01:57:12.954Z,70.53
2015-12-18T01:57:25.329Z,70.81
2015-12-18T01:57:36.971Z,70.72
2015-12-18T01:57:49.346Z,70.53
2015-12-18T01:58:01.706Z,70.62
2015-12-18T01:58:14.081Z,70.43
2015-12-18T01:58:26.456Z,70.43
2015-12-18T01:58:38.834Z,70.34
2015-12-18T01:58:51.209Z,70.43
2015-12-18T01:59:03.599Z,70.43
2015-12-18T01:59:15.990Z,70.34
2015-12-18T01:59:28.365Z,70.53
2015-12-18T01:59:40.040Z,70.24
2015-12-18T01:59:52.430Z,70.53
2015-12-18T02:00:04.805Z,70.24
2015-12-18T02:00:17.196Z,70.24
2015-12-18T02:00:29.587Z,70.53
2015-12-18T02:00:41.949Z,70.62
2015-12-18T02:00:54.308Z,70.53
2015-12-18T02:01:06.668Z,70.62
2015-12-18T02:01:19.027Z,70.81
2015-12-18T02:01:31.386Z,70.72
2015-12-18T02:01:43.748Z,70.62
2015-12-18T02:01:56.092Z,70.72
2015-12-18T02:02:08.451Z,70.72
2015-12-18T02:02:20.810Z,70.81
2015-12-18T02:02:33.154Z,70.81
2015-12-18T02:02:45.517Z,70.72
2015-12-18T02:02:57.877Z,70.81
2015-12-18T02:03:10.236Z,70.72
2015-12-18T02:03:22.596Z,70.81
2015-12-18T02:03:34.971Z,70.81
2015-12-18T02:03:47.348Z,70.53
2015-12-18T02:03:59.723Z,70.53
2015-12-18T02:04:12.113Z,70.62
2015-12-18T02:04:24.504Z,70.53
2015-12-18T02:04:36.894Z,70.53
2015-12-18T02:04:49.304Z,70.43
2015-12-18T02:05:01.694Z,70.53
2015-12-18T02:05:14.085Z,70.53
2015-12-18T02:05:26.460Z,70.72
2015-12-18T02:05:38.851Z,70.72
2015-12-18T02:05:51.213Z,70.43
2015-12-18T02:06:03.557Z,70.43
2015-12-18T02:06:15.932Z,70.43
2015-12-18T02:06:28.275Z,70.43
2015-12-18T02:06:40.652Z,70.43
2015-12-18T02:06:52.996Z,70.53
2015-12-18T02:07:05.356Z,70.9
2015-12-18T02:07:17.715Z,70.81
2015-12-18T02:07:30.074Z,70.43
2015-12-18T02:07:42.437Z,70.62
2015-12-18T02:07:54.780Z,70.62
2015-12-18T02:08:07.155Z,70.72
2015-12-18T02:08:19.515Z,70.62
2015-12-18T02:08:31.734Z,70.72
2015-12-18T02:08:44.112Z,70.62
2015-12-18T02:08:55.768Z,70.62
2015-12-18T02:09:08.237Z,70.62
2015-12-18T02:09:20.612Z,70.72
2015-12-18T02:09:33.018Z,70.72
2015-12-18T02:09:45.410Z,70.62
2015-12-18T02:09:57.098Z,70.62
2015-12-18T02:10:09.489Z,70.81
2015-12-18T02:10:21.879Z,70.81
2015-12-18T02:10:34.285Z,70.43
2015-12-18T02:10:46.632Z,70.62
2015-12-18T02:10:58.992Z,70.43
2015-12-18T02:11:10.648Z,70.81
2015-12-18T02:11:22.992Z,70.53
2015-12-18T02:11:35.351Z,70.62
2015-12-18T02:11:47.713Z,70.72
2015-12-18T02:12:00.073Z,70.9
2015-12-18T02:12:11.729Z,71
2015-12-18T02:12:24.088Z,71.09
2015-12-18T02:12:36.432Z,71.09
2015-12-18T02:12:48.810Z,70.9
2015-12-18T02:13:01.169Z,71
2015-12-18T02:13:13.544Z,71.09
2015-12-18T02:13:25.904Z,71.19
2015-12-18T02:13:38.279Z,71
2015-12-18T02:13:50.641Z,70.9
2015-12-18T02:14:03.032Z,71.19
2015-12-18T02:14:15.422Z,71.19
2015-12-18T02:14:27.813Z,70.9
2015-12-18T02:14:40.204Z,71.19
2015-12-18T02:14:52.582Z,71
2015-12-18T02:15:04.972Z,70.62
2015-12-18T02:15:17.363Z,70.62
2015-12-18T02:15:29.738Z,70.81
2015-12-18T02:15:42.097Z,70.72
2015-12-18T02:15:54.459Z,70.72
2015-12-18T02:16:06.802Z,70.81
2015-12-18T02:16:19.162Z,70.34
2015-12-18T02:16:31.506Z,70.72
2015-12-18T02:16:43.865Z,70.81
2015-12-18T02:16:56.226Z,70.43
2015-12-18T02:17:08.586Z,70.34
2015-12-18T02:17:20.945Z,70.24
2015-12-18T02:17:33.304Z,70.62
2015-12-18T02:17:45.664Z,70.34
2015-12-18T02:17:58.026Z,70.24
2015-12-18T02:18:10.386Z,70.24
2015-12-18T02:18:22.761Z,70.43
2015-12-18T02:18:35.136Z,70.43
2015-12-18T02:18:47.511Z,70.53
2015-12-18T02:18:59.890Z,70.43
2015-12-18T02:19:12.280Z,70.53
2015-12-18T02:19:24.655Z,70.43
2015-12-18T02:19:37.046Z,70.43
2015-12-18T02:19:49.436Z,70.34
2015-12-18T02:20:01.813Z,70.34
2015-12-18T02:20:14.204Z,70.43
2015-12-18T02:20:26.595Z,70.15
2015-12-18T02:20:38.954Z,70.24
2015-12-18T02:20:51.313Z,70.15
2015-12-18T02:21:03.691Z,70.15
2015-12-18T02:21:16.035Z,70.24
2015-12-18T02:21:28.410Z,70.34
2015-12-18T02:21:40.770Z,70.34
2015-12-18T02:21:53.129Z,70.43
2015-12-18T02:22:05.491Z,70.43
2015-12-18T02:22:17.835Z,70.62
2015-12-18T02:22:30.194Z,70.53
2015-12-18T02:22:42.554Z,70.43
2015-12-18T02:22:54.913Z,70.24
2015-12-18T02:23:07.276Z,70.24
2015-12-18T02:23:19.651Z,70.24
2015-12-18T02:23:32.026Z,70.24
2015-12-18T02:23:44.385Z,70.53
2015-12-18T02:23:56.760Z,70.24
2015-12-18T02:24:09.208Z,70.53
2015-12-18T02:24:22.188Z,70.53
2015-12-18T02:24:34.438Z,70.53
2015-12-18T02:24:46.151Z,70.24
2015-12-18T02:24:58.557Z,70.34
2015-12-18T02:25:10.809Z,70.43
2015-12-18T02:25:23.470Z,70.43
2015-12-18T02:25:36.314Z,70.24
2015-12-18T02:25:48.829Z,70.24
2015-12-18T02:26:01.236Z,70.34
2015-12-18T02:26:13.645Z,70.34
2015-12-18T02:26:26.067Z,70.15
2015-12-18T02:26:40.431Z,70.15
2015-12-18T02:26:54.290Z,70.05
2015-12-18T02:27:07.231Z,70.24
2015-12-18T02:27:19.934Z,70.34
2015-12-18T02:27:34.950Z,70.43
2015-12-18T02:27:51.715Z,70.34
2015-12-18T02:28:05.090Z,70.43
2015-12-18T02:28:18.531Z,70.43
2015-12-18T02:28:31.468Z,70.34
2015-12-18T02:28:44.765Z,70.43
2015-12-18T02:28:57.343Z,70.72
2015-12-18T02:29:10.095Z,70.62
2015-12-18T02:29:22.533Z,70.62
2015-12-18T02:29:35.048Z,70.53
2015-12-18T02:29:47.486Z,70.62
2015-12-18T02:29:59.955Z,70.62
2015-12-18T02:30:12.926Z,70.43
2015-12-18T02:30:25.270Z,70.62
2015-12-18T02:30:37.645Z,70.72
2015-12-18T02:30:50.020Z,70.62
2015-12-18T02:31:02.380Z,70.62
2015-12-18T02:31:14.758Z,70.62
2015-12-18T02:31:27.117Z,70.53
2015-12-18T02:31:39.320Z,70.62
2015-12-18T02:31:51.664Z,70.62
2015-12-18T02:32:04.179Z,70.53
2015-12-18T02:32:16.542Z,70.53
2015-12-18T02:32:28.886Z,70.72
2015-12-18T02:32:41.277Z,70.62
2015-12-18T02:32:53.683Z,70.72
2015-12-18T02:33:06.043Z,70.43
2015-12-18T02:33:18.436Z,70.72
2015-12-18T02:33:30.811Z,70.62
2015-12-18T02:33:43.233Z,70.43
2015-12-18T02:33:55.702Z,70.62
2015-12-18T02:34:08.139Z,70.72
2015-12-18T02:34:20.579Z,70.43
2015-12-18T02:34:32.985Z,70.53
2015-12-18T02:34:45.470Z,70.43
2015-12-18T02:34:57.876Z,70.62
2015-12-18T02:35:10.235Z,70.53
2015-12-18T02:35:22.613Z,70.53
2015-12-18T02:35:34.973Z,70.62
2015-12-18T02:35:47.332Z,70.43
2015-12-18T02:35:59.691Z,70.53
2015-12-18T02:36:12.066Z,70.62
2015-12-18T02:36:24.493Z,70.9
2015-12-18T02:36:36.874Z,70.81
2015-12-18T02:36:49.264Z,70.62
2015-12-18T02:37:01.624Z,70.62
2015-12-18T02:37:13.983Z,70.72
2015-12-18T02:37:26.375Z,70.62
2015-12-18T02:37:38.063Z,70.72
2015-12-18T02:37:50.453Z,70.62
2015-12-18T02:38:02.828Z,70.81
2015-12-18T02:38:15.219Z,70.9
2015-12-18T02:38:27.597Z,70.81
2015-12-18T02:38:39.972Z,70.81
2015-12-18T02:38:52.378Z,70.81
2015-12-18T02:39:04.800Z,71
2015-12-18T02:39:17.159Z,71.09
2015-12-18T02:39:29.505Z,71
2015-12-18T02:39:41.864Z,71.28
2015-12-18T02:39:54.224Z,71.09
2015-12-18T02:40:06.568Z,71.37